sensor_id;sensor_type;location;lat;lon;timestamp;pressure;altitude;pressure_sealevel;temperature;humidity
15529;BME280;7866;52.280;9.500;2023-04-28T00:03:21;100429.78;;;7.58;60.33
15529;BME280;7866;52.280;9.500;2023-04-28T00:08:24;100419.00;;;7.59;60.66
15529;BME280;7866;52.280;9.500;2023-04-28T00:13:26;100423.16;;;7.62;60.31
15529;BME280;7866;52.280;9.500;2023-04-28T00:18:28;100406.56;;;7.50;60.91
15529;BME280;7866;52.280;9.500;2023-04-28T00:23:31;100397.41;;;7.53;61.86
15529;BME280;7866;52.280;9.500;2023-04-28T00:28:32;100384.09;;;7.53;61.64
15529;BME280;7866;52.280;9.500;2023-04-28T00:33:34;100391.34;;;7.60;61.02
15529;BME280;7866;52.280;9.500;2023-04-28T00:38:37;100385.28;;;7.68;60.46
15529;BME280;7866;52.280;9.500;2023-04-28T00:43:46;100378.44;;;7.83;58.84
15529;BME280;7866;52.280;9.500;2023-04-28T00:48:48;100369.69;;;7.91;57.16
15529;BME280;7866;52.280;9.500;2023-04-28T00:53:51;100354.31;;;8.03;55.98
15529;BME280;7866;52.280;9.500;2023-04-28T00:58:53;100354.44;;;8.01;55.97
15529;BME280;7866;52.280;9.500;2023-04-28T01:03:54;100343.78;;;8.01;56.76
15529;BME280;7866;52.280;9.500;2023-04-28T01:08:57;100344.47;;;8.03;57.67
15529;BME280;7866;52.280;9.500;2023-04-28T01:13:59;100345.47;;;8.02;58.06
15529;BME280;7866;52.280;9.500;2023-04-28T01:19:01;100348.44;;;7.99;58.50
15529;BME280;7866;52.280;9.500;2023-04-28T01:24:04;100339.75;;;7.97;58.79
15529;BME280;7866;52.280;9.500;2023-04-28T01:29:06;100338.84;;;7.88;59.15
15529;BME280;7866;52.280;9.500;2023-04-28T01:34:08;100326.97;;;7.83;59.56
15529;BME280;7866;52.280;9.500;2023-04-28T01:39:11;100314.75;;;7.80;59.57
15529;BME280;7866;52.280;9.500;2023-04-28T01:44:13;100315.88;;;7.78;60.12
15529;BME280;7866;52.280;9.500;2023-04-28T01:49:14;100312.25;;;7.79;59.21
15529;BME280;7866;52.280;9.500;2023-04-28T01:54:17;100305.34;;;7.86;58.38
15529;BME280;7866;52.280;9.500;2023-04-28T01:59:19;100307.66;;;7.89;57.83
15529;BME280;7866;52.280;9.500;2023-04-28T02:04:20;100295.34;;;7.88;57.75
15529;BME280;7866;52.280;9.500;2023-04-28T02:09:23;100286.22;;;7.90;57.88
15529;BME280;7866;52.280;9.500;2023-04-28T02:14:25;100282.94;;;7.79;58.57
15529;BME280;7866;52.280;9.500;2023-04-28T02:19:27;100273.03;;;7.71;59.34
15529;BME280;7866;52.280;9.500;2023-04-28T02:24:30;100270.50;;;7.70;59.62
15529;BME280;7866;52.280;9.500;2023-04-28T02:29:34;100261.66;;;7.69;60.21
15529;BME280;7866;52.280;9.500;2023-04-28T02:34:36;100257.94;;;7.62;60.22
15529;BME280;7866;52.280;9.500;2023-04-28T02:39:39;100246.75;;;7.58;60.71
15529;BME280;7866;52.280;9.500;2023-04-28T02:44:41;100240.56;;;7.58;60.56
15529;BME280;7866;52.280;9.500;2023-04-28T02:49:42;100226.03;;;7.52;61.24
15529;BME280;7866;52.280;9.500;2023-04-28T02:54:45;100218.41;;;7.57;60.62
15529;BME280;7866;52.280;9.500;2023-04-28T02:59:48;100213.16;;;7.65;60.82
15529;BME280;7866;52.280;9.500;2023-04-28T03:04:50;100211.34;;;7.48;61.18
15529;BME280;7866;52.280;9.500;2023-04-28T03:09:53;100209.59;;;7.39;62.36
15529;BME280;7866;52.280;9.500;2023-04-28T03:14:54;100209.59;;;7.39;62.11
15529;BME280;7866;52.280;9.500;2023-04-28T03:19:56;100201.38;;;7.50;62.07
15529;BME280;7866;52.280;9.500;2023-04-28T03:24:59;100188.06;;;7.50;62.05
15529;BME280;7866;52.280;9.500;2023-04-28T03:30:01;100184.63;;;7.40;62.82
15529;BME280;7866;52.280;9.500;2023-04-28T03:35:03;100180.06;;;7.14;63.21
15529;BME280;7866;52.280;9.500;2023-04-28T03:40:07;100176.56;;;7.32;63.54
15529;BME280;7866;52.280;9.500;2023-04-28T03:45:10;100177.69;;;7.29;63.30
15529;BME280;7866;52.280;9.500;2023-04-28T03:50:12;100172.97;;;7.23;64.21
15529;BME280;7866;52.280;9.500;2023-04-28T03:55:15;100178.53;;;7.12;63.54
15529;BME280;7866;52.280;9.500;2023-04-28T04:00:17;100170.06;;;7.16;64.80
15529;BME280;7866;52.280;9.500;2023-04-28T04:05:18;100156.53;;;7.28;64.22
15529;BME280;7866;52.280;9.500;2023-04-28T04:10:21;100163.63;;;7.37;64.09
15529;BME280;7866;52.280;9.500;2023-04-28T04:15:23;100160.66;;;7.40;64.49
15529;BME280;7866;52.280;9.500;2023-04-28T04:20:24;100155.47;;;7.38;64.04
15529;BME280;7866;52.280;9.500;2023-04-28T04:25:28;100144.38;;;7.43;63.56
15529;BME280;7866;52.280;9.500;2023-04-28T04:30:29;100141.41;;;7.46;64.03
15529;BME280;7866;52.280;9.500;2023-04-28T04:35:31;100146.09;;;7.52;64.79
15529;BME280;7866;52.280;9.500;2023-04-28T04:40:34;100133.31;;;7.56;64.37
15529;BME280;7866;52.280;9.500;2023-04-28T04:45:36;100133.47;;;7.54;64.24
15529;BME280;7866;52.280;9.500;2023-04-28T04:50:38;100126.25;;;7.73;64.24
15529;BME280;7866;52.280;9.500;2023-04-28T04:55:41;100121.22;;;7.70;64.29
15529;BME280;7866;52.280;9.500;2023-04-28T05:00:43;100124.13;;;7.76;64.56
15529;BME280;7866;52.280;9.500;2023-04-28T05:05:44;100111.19;;;7.89;64.28
15529;BME280;7866;52.280;9.500;2023-04-28T05:10:47;100108.69;;;7.88;64.18
15529;BME280;7866;52.280;9.500;2023-04-28T05:16:07;100109.88;;;7.94;63.99
15529;BME280;7866;52.280;9.500;2023-04-28T05:21:08;100112.91;;;7.90;64.77
15529;BME280;7866;52.280;9.500;2023-04-28T05:26:12;100102.06;;;7.92;64.09
15529;BME280;7866;52.280;9.500;2023-04-28T05:31:14;100101.91;;;8.28;63.15
15529;BME280;7866;52.280;9.500;2023-04-28T05:36:15;100098.84;;;8.14;63.40
15529;BME280;7866;52.280;9.500;2023-04-28T05:41:18;100097.03;;;8.15;63.84
15529;BME280;7866;52.280;9.500;2023-04-28T05:46:20;100097.19;;;8.48;63.21
15529;BME280;7866;52.280;9.500;2023-04-28T05:51:21;100091.25;;;8.70;62.36
15529;BME280;7866;52.280;9.500;2023-04-28T05:56:24;100087.38;;;8.56;62.57
15529;BME280;7866;52.280;9.500;2023-04-28T06:01:26;100080.41;;;8.72;63.22
15529;BME280;7866;52.280;9.500;2023-04-28T06:06:27;100080.09;;;8.91;62.60
15529;BME280;7866;52.280;9.500;2023-04-28T06:11:30;100076.94;;;9.04;62.69
15529;BME280;7866;52.280;9.500;2023-04-28T06:16:32;100066.25;;;9.36;61.61
15529;BME280;7866;52.280;9.500;2023-04-28T06:21:34;100077.28;;;9.33;61.51
15529;BME280;7866;52.280;9.500;2023-04-28T06:26:37;100088.94;;;9.65;60.39
15529;BME280;7866;52.280;9.500;2023-04-28T06:31:39;100083.59;;;9.65;60.74
15529;BME280;7866;52.280;9.500;2023-04-28T06:36:41;100080.88;;;9.98;59.80
15529;BME280;7866;52.280;9.500;2023-04-28T06:41:44;100082.16;;;10.10;59.98
15529;BME280;7866;52.280;9.500;2023-04-28T06:46:46;100080.09;;;10.28;59.71
15529;BME280;7866;52.280;9.500;2023-04-28T06:51:48;100074.00;;;10.51;59.54
15529;BME280;7866;52.280;9.500;2023-04-28T06:56:51;100066.25;;;10.56;60.11
15529;BME280;7866;52.280;9.500;2023-04-28T07:01:52;100049.16;;;10.88;58.98
15529;BME280;7866;52.280;9.500;2023-04-28T07:06:54;100044.28;;;11.15;59.18
15529;BME280;7866;52.280;9.500;2023-04-28T07:11:57;100051.50;;;11.29;58.05
15529;BME280;7866;52.280;9.500;2023-04-28T07:16:59;100047.84;;;10.84;58.11
15529;BME280;7866;52.280;9.500;2023-04-28T07:22:00;100042.84;;;10.81;58.58
15529;BME280;7866;52.280;9.500;2023-04-28T07:27:03;100042.06;;;10.95;58.68
15529;BME280;7866;52.280;9.500;2023-04-28T07:32:05;100034.31;;;11.00;58.25
15529;BME280;7866;52.280;9.500;2023-04-28T07:37:09;100038.25;;;11.13;58.55
15529;BME280;7866;52.280;9.500;2023-04-28T07:42:13;100035.94;;;11.09;59.47
15529;BME280;7866;52.280;9.500;2023-04-28T07:47:14;100031.63;;;11.61;58.85
15529;BME280;7866;52.280;9.500;2023-04-28T07:52:16;100033.81;;;12.46;56.17
15529;BME280;7866;52.280;9.500;2023-04-28T07:57:19;100027.84;;;12.87;52.81
15529;BME280;7866;52.280;9.500;2023-04-28T08:02:21;100016.44;;;12.64;52.24
15529;BME280;7866;52.280;9.500;2023-04-28T08:07:23;100021.13;;;12.98;52.67
15529;BME280;7866;52.280;9.500;2023-04-28T08:12:27;100018.69;;;11.94;56.29
15529;BME280;7866;52.280;9.500;2023-04-28T08:17:28;100017.78;;;12.02;56.88
15529;BME280;7866;52.280;9.500;2023-04-28T08:22:30;100014.63;;;11.98;56.87
15529;BME280;7866;52.280;9.500;2023-04-28T08:27:33;100005.91;;;12.11;56.71
15529;BME280;7866;52.280;9.500;2023-04-28T08:32:37;100018.16;;;12.71;55.30
15529;BME280;7866;52.280;9.500;2023-04-28T08:37:38;100013.69;;;12.78;54.32
15529;BME280;7866;52.280;9.500;2023-04-28T08:42:42;100018.59;;;12.96;54.08
15529;BME280;7866;52.280;9.500;2023-04-28T08:47:47;100011.22;;;12.77;54.66
15529;BME280;7866;52.280;9.500;2023-04-28T08:52:51;100010.59;;;12.60;54.95
15529;BME280;7866;52.280;9.500;2023-04-28T08:57:54;99996.75;;;12.78;54.83
15529;BME280;7866;52.280;9.500;2023-04-28T09:02:56;99998.34;;;12.94;54.39
15529;BME280;7866;52.280;9.500;2023-04-28T09:08:00;99993.34;;;13.40;53.30
15529;BME280;7866;52.280;9.500;2023-04-28T09:13:04;99993.16;;;13.70;52.44
15529;BME280;7866;52.280;9.500;2023-04-28T09:18:06;99987.75;;;13.14;53.76
15529;BME280;7866;52.280;9.500;2023-04-28T09:23:12;99989.78;;;13.61;53.07
15529;BME280;7866;52.280;9.500;2023-04-28T09:28:22;99980.25;;;13.59;53.17
15529;BME280;7866;52.280;9.500;2023-04-28T09:33:24;99973.00;;;13.59;53.51
15529;BME280;7866;52.280;9.500;2023-04-28T09:38:26;99968.28;;;14.09;53.01
15529;BME280;7866;52.280;9.500;2023-04-28T09:43:31;99980.16;;;13.80;53.63
15529;BME280;7866;52.280;9.500;2023-04-28T09:48:34;99980.28;;;13.09;55.46
15529;BME280;7866;52.280;9.500;2023-04-28T09:53:37;99983.00;;;13.37;54.74
15529;BME280;7866;52.280;9.500;2023-04-28T09:58:42;99986.53;;;13.16;55.23
15529;BME280;7866;52.280;9.500;2023-04-28T10:03:46;99983.22;;;13.14;55.63
15529;BME280;7866;52.280;9.500;2023-04-28T10:08:50;99970.81;;;13.13;55.71
15529;BME280;7866;52.280;9.500;2023-04-28T10:13:53;99978.75;;;13.49;54.99
15529;BME280;7866;52.280;9.500;2023-04-28T10:18:55;99971.94;;;13.53;54.95
15529;BME280;7866;52.280;9.500;2023-04-28T10:24:14;99975.13;;;13.70;55.01
15529;BME280;7866;52.280;9.500;2023-04-28T10:29:23;99962.91;;;13.68;55.44
15529;BME280;7866;52.280;9.500;2023-04-28T10:34:25;99963.72;;;13.62;55.73
15529;BME280;7866;52.280;9.500;2023-04-28T10:39:28;99962.56;;;13.77;56.19
15529;BME280;7866;52.280;9.500;2023-04-28T10:44:43;99958.59;;;14.28;56.70
15529;BME280;7866;52.280;9.500;2023-04-28T10:50:14;99955.44;;;14.04;58.82
15529;BME280;7866;52.280;9.500;2023-04-28T10:55:29;99944.66;;;14.04;58.88
15529;BME280;7866;52.280;9.500;2023-04-28T11:00:38;99925.50;;;14.41;58.43
15529;BME280;7866;52.280;9.500;2023-04-28T11:11:21;99920.13;;;14.41;59.03
15529;BME280;7866;52.280;9.500;2023-04-28T11:16:25;99925.75;;;13.85;59.24
15529;BME280;7866;52.280;9.500;2023-04-28T11:21:26;99916.53;;;13.66;60.06
15529;BME280;7866;52.280;9.500;2023-04-28T11:26:28;99913.69;;;13.74;60.00
15529;BME280;7866;52.280;9.500;2023-04-28T11:31:31;99920.16;;;13.86;59.77
15529;BME280;7866;52.280;9.500;2023-04-28T11:36:34;99910.28;;;14.07;59.54
15529;BME280;7866;52.280;9.500;2023-04-28T11:41:37;99907.97;;;13.97;59.77
15529;BME280;7866;52.280;9.500;2023-04-28T11:46:45;99921.69;;;14.09;59.56
15529;BME280;7866;52.280;9.500;2023-04-28T11:51:50;99916.13;;;14.23;59.22
15529;BME280;7866;52.280;9.500;2023-04-28T11:56:53;99927.25;;;14.07;59.62
15529;BME280;7866;52.280;9.500;2023-04-28T12:01:58;99923.09;;;13.98;60.03
15529;BME280;7866;52.280;9.500;2023-04-28T12:07:01;99915.06;;;14.04;62.15
15529;BME280;7866;52.280;9.500;2023-04-28T12:12:05;99911.09;;;14.00;63.67
15529;BME280;7866;52.280;9.500;2023-04-28T12:17:22;99910.84;;;13.95;66.51
15529;BME280;7866;52.280;9.500;2023-04-28T12:22:24;99898.75;;;13.71;68.00
15529;BME280;7866;52.280;9.500;2023-04-28T12:27:26;99897.31;;;13.69;69.09
15529;BME280;7866;52.280;9.500;2023-04-28T12:32:39;99884.34;;;13.92;69.67
15529;BME280;7866;52.280;9.500;2023-04-28T12:37:42;99874.84;;;13.96;69.65
15529;BME280;7866;52.280;9.500;2023-04-28T12:42:44;99874.03;;;14.02;67.73
15529;BME280;7866;52.280;9.500;2023-04-28T12:47:48;99873.84;;;14.11;67.77
15529;BME280;7866;52.280;9.500;2023-04-28T12:52:50;99870.34;;;14.17;67.25
15529;BME280;7866;52.280;9.500;2023-04-28T12:57:52;99868.28;;;14.32;66.26
15529;BME280;7866;52.280;9.500;2023-04-28T13:02:57;99854.41;;;14.42;65.30
15529;BME280;7866;52.280;9.500;2023-04-28T13:07:59;99853.97;;;14.18;65.56
15529;BME280;7866;52.280;9.500;2023-04-28T13:13:01;99857.88;;;14.16;66.52
15529;BME280;7866;52.280;9.500;2023-04-28T13:18:06;99853.31;;;13.96;67.06
15529;BME280;7866;52.280;9.500;2023-04-28T13:23:07;99860.59;;;14.09;67.20
15529;BME280;7866;52.280;9.500;2023-04-28T13:28:09;99849.94;;;13.88;67.49
15529;BME280;7866;52.280;9.500;2023-04-28T13:33:14;99848.66;;;13.70;68.51
15529;BME280;7866;52.280;9.500;2023-04-28T13:38:16;99848.06;;;13.88;67.96
15529;BME280;7866;52.280;9.500;2023-04-28T13:43:20;99838.41;;;14.00;68.53
15529;BME280;7866;52.280;9.500;2023-04-28T13:48:24;99826.56;;;13.95;68.23
15529;BME280;7866;52.280;9.500;2023-04-28T13:53:27;99819.22;;;14.57;67.52
15529;BME280;7866;52.280;9.500;2023-04-28T13:58:28;99811.03;;;15.10;65.36
15529;BME280;7866;52.280;9.500;2023-04-28T14:03:31;99816.63;;;15.21;65.07
15529;BME280;7866;52.280;9.500;2023-04-28T14:08:33;99818.53;;;15.01;65.04
15529;BME280;7866;52.280;9.500;2023-04-28T14:13:36;99822.25;;;15.13;65.02
15529;BME280;7866;52.280;9.500;2023-04-28T14:18:39;99818.75;;;14.86;65.69
15529;BME280;7866;52.280;9.500;2023-04-28T14:23:40;99810.06;;;14.84;66.39
15529;BME280;7866;52.280;9.500;2023-04-28T14:28:42;99804.47;;;14.92;66.52
15529;BME280;7866;52.280;9.500;2023-04-28T14:33:45;99797.31;;;15.24;65.50
15529;BME280;7866;52.280;9.500;2023-04-28T14:38:46;99780.00;;;15.45;64.96
15529;BME280;7866;52.280;9.500;2023-04-28T14:43:48;99767.88;;;15.10;66.12
15529;BME280;7866;52.280;9.500;2023-04-28T14:48:51;99773.09;;;15.05;66.13
15529;BME280;7866;52.280;9.500;2023-04-28T14:53:53;99762.97;;;14.93;66.80
15529;BME280;7866;52.280;9.500;2023-04-28T14:58:55;99756.16;;;15.36;66.04
15529;BME280;7866;52.280;9.500;2023-04-28T15:03:58;99746.72;;;15.65;64.92
15529;BME280;7866;52.280;9.500;2023-04-28T15:09:00;99740.66;;;15.24;66.32
15529;BME280;7866;52.280;9.500;2023-04-28T15:14:01;99743.34;;;15.24;66.62
15529;BME280;7866;52.280;9.500;2023-04-28T15:19:04;99746.22;;;15.30;66.26
15529;BME280;7866;52.280;9.500;2023-04-28T15:24:06;99729.78;;;15.44;65.88
15529;BME280;7866;52.280;9.500;2023-04-28T15:29:08;99728.47;;;15.53;65.88
15529;BME280;7866;52.280;9.500;2023-04-28T15:34:12;99727.69;;;15.40;66.14
15529;BME280;7866;52.280;9.500;2023-04-28T15:39:14;99736.78;;;15.07;67.09
15529;BME280;7866;52.280;9.500;2023-04-28T15:44:16;99730.25;;;14.63;68.47
15529;BME280;7866;52.280;9.500;2023-04-28T15:49:20;99732.13;;;14.56;69.23
15529;BME280;7866;52.280;9.500;2023-04-28T15:54:21;99727.56;;;14.63;69.12
15529;BME280;7866;52.280;9.500;2023-04-28T15:59:41;99728.41;;;14.37;71.78
15529;BME280;7866;52.280;9.500;2023-04-28T16:04:44;99731.53;;;14.14;73.21
15529;BME280;7866;52.280;9.500;2023-04-28T16:09:46;99733.59;;;14.05;74.40
15529;BME280;7866;52.280;9.500;2023-04-28T16:14:47;99730.28;;;14.03;75.35
15529;BME280;7866;52.280;9.500;2023-04-28T16:19:51;99728.22;;;13.99;76.15
15529;BME280;7866;52.280;9.500;2023-04-28T16:24:53;99726.97;;;14.01;76.77
15529;BME280;7866;52.280;9.500;2023-04-28T16:29:56;99729.47;;;13.96;76.78
15529;BME280;7866;52.280;9.500;2023-04-28T16:34:59;99729.66;;;13.82;77.54
15529;BME280;7866;52.280;9.500;2023-04-28T16:40:00;99720.75;;;13.94;77.25
15529;BME280;7866;52.280;9.500;2023-04-28T16:45:03;99712.47;;;13.96;77.14
15529;BME280;7866;52.280;9.500;2023-04-28T16:50:07;99706.47;;;13.87;77.68
15529;BME280;7866;52.280;9.500;2023-04-28T16:55:09;99708.72;;;13.84;78.51
15529;BME280;7866;52.280;9.500;2023-04-28T17:00:13;99697.16;;;14.03;78.83
15529;BME280;7866;52.280;9.500;2023-04-28T17:05:16;99697.56;;;14.00;78.70
15529;BME280;7866;52.280;9.500;2023-04-28T17:10:18;99694.06;;;13.93;78.77
15529;BME280;7866;52.280;9.500;2023-04-28T17:15:19;99691.16;;;13.94;78.84
15529;BME280;7866;52.280;9.500;2023-04-28T17:20:23;99686.38;;;13.83;78.94
15529;BME280;7866;52.280;9.500;2023-04-28T17:25:25;99678.31;;;13.96;78.00
15529;BME280;7866;52.280;9.500;2023-04-28T17:30:26;99672.31;;;14.01;78.27
15529;BME280;7866;52.280;9.500;2023-04-28T17:35:29;99674.56;;;13.91;78.92
15529;BME280;7866;52.280;9.500;2023-04-28T17:40:31;99673.34;;;13.93;78.28
15529;BME280;7866;52.280;9.500;2023-04-28T17:45:33;99670.03;;;13.98;77.34
15529;BME280;7866;52.280;9.500;2023-04-28T17:50:36;99663.41;;;13.94;77.55
15529;BME280;7866;52.280;9.500;2023-04-28T17:55:38;99665.47;;;13.92;77.42
15529;BME280;7866;52.280;9.500;2023-04-28T18:00:40;99663.19;;;13.95;76.27
15529;BME280;7866;52.280;9.500;2023-04-28T18:05:44;99661.53;;;13.94;77.42
15529;BME280;7866;52.280;9.500;2023-04-28T18:10:46;99662.75;;;13.92;77.22
15529;BME280;7866;52.280;9.500;2023-04-28T18:15:47;99662.34;;;13.88;76.77
15529;BME280;7866;52.280;9.500;2023-04-28T18:20:55;99658.22;;;13.79;77.42
15529;BME280;7866;52.280;9.500;2023-04-28T18:25:57;99664.84;;;13.70;78.83
15529;BME280;7866;52.280;9.500;2023-04-28T18:31:03;99656.97;;;13.62;80.16
15529;BME280;7866;52.280;9.500;2023-04-28T18:36:06;99652.19;;;13.50;80.39
15529;BME280;7866;52.280;9.500;2023-04-28T18:41:11;99652.81;;;13.46;81.23
15529;BME280;7866;52.280;9.500;2023-04-28T18:46:13;99643.50;;;13.42;82.61
15529;BME280;7866;52.280;9.500;2023-04-28T18:51:16;99640.19;;;13.33;82.64
15529;BME280;7866;52.280;9.500;2023-04-28T18:56:19;99644.50;;;13.27;83.36
15529;BME280;7866;52.280;9.500;2023-04-28T19:01:22;99646.72;;;13.17;84.24
15529;BME280;7866;52.280;9.500;2023-04-28T19:06:25;99654.00;;;13.23;84.93
15529;BME280;7866;52.280;9.500;2023-04-28T19:11:27;99651.91;;;13.19;85.80
15529;BME280;7866;52.280;9.500;2023-04-28T19:16:29;99661.91;;;13.38;87.26
15529;BME280;7866;52.280;9.500;2023-04-28T19:21:39;99668.13;;;13.59;84.35
15529;BME280;7866;52.280;9.500;2023-04-28T19:26:41;99680.56;;;13.66;84.41
15529;BME280;7866;52.280;9.500;2023-04-28T19:31:42;99689.25;;;13.68;84.46
15529;BME280;7866;52.280;9.500;2023-04-28T19:36:46;99693.19;;;13.79;83.21
15529;BME280;7866;52.280;9.500;2023-04-28T19:41:47;99694.66;;;13.88;84.68
15529;BME280;7866;52.280;9.500;2023-04-28T19:46:49;99698.41;;;13.94;85.20
15529;BME280;7866;52.280;9.500;2023-04-28T19:51:52;99695.28;;;14.03;85.54
15529;BME280;7866;52.280;9.500;2023-04-28T19:56:54;99703.34;;;14.03;84.23
15529;BME280;7866;52.280;9.500;2023-04-28T20:01:56;99704.63;;;14.01;84.67
15529;BME280;7866;52.280;9.500;2023-04-28T20:06:59;99707.94;;;14.10;84.08
15529;BME280;7866;52.280;9.500;2023-04-28T20:12:01;99709.56;;;14.11;85.37
15529;BME280;7866;52.280;9.500;2023-04-28T20:17:06;99707.28;;;14.14;84.55
15529;BME280;7866;52.280;9.500;2023-04-28T20:22:09;99707.06;;;14.16;83.95
15529;BME280;7866;52.280;9.500;2023-04-28T20:27:11;99700.47;;;14.18;86.15
15529;BME280;7866;52.280;9.500;2023-04-28T20:32:13;99706.06;;;14.17;87.02
15529;BME280;7866;52.280;9.500;2023-04-28T20:37:16;99703.78;;;14.20;87.06
15529;BME280;7866;52.280;9.500;2023-04-28T20:42:20;99703.38;;;14.17;85.68
15529;BME280;7866;52.280;9.500;2023-04-28T20:47:21;99703.56;;;14.15;86.67
15529;BME280;7866;52.280;9.500;2023-04-28T20:52:24;99707.09;;;14.02;87.91
15529;BME280;7866;52.280;9.500;2023-04-28T20:57:27;99703.38;;;13.97;88.89
15529;BME280;7866;52.280;9.500;2023-04-28T21:02:29;99706.47;;;13.94;89.96
15529;BME280;7866;52.280;9.500;2023-04-28T21:07:32;99703.97;;;13.92;88.58
15529;BME280;7866;52.280;9.500;2023-04-28T21:12:35;99698.59;;;13.92;91.67
15529;BME280;7866;52.280;9.500;2023-04-28T21:17:37;99704.19;;;13.97;90.49
15529;BME280;7866;52.280;9.500;2023-04-28T21:22:40;99706.47;;;13.94;88.96
15529;BME280;7866;52.280;9.500;2023-04-28T21:27:42;99706.66;;;13.92;89.57
15529;BME280;7866;52.280;9.500;2023-04-28T21:32:44;99705.22;;;13.90;89.28
15529;BME280;7866;52.280;9.500;2023-04-28T21:37:47;99716.19;;;13.88;89.64
15529;BME280;7866;52.280;9.500;2023-04-28T21:42:48;99716.19;;;13.88;88.79
15529;BME280;7866;52.280;9.500;2023-04-28T21:47:51;99710.19;;;13.79;88.93
15529;BME280;7866;52.280;9.500;2023-04-28T21:52:53;99716.19;;;13.75;89.03
15529;BME280;7866;52.280;9.500;2023-04-28T21:57:55;99715.78;;;13.78;90.08
15529;BME280;7866;52.280;9.500;2023-04-28T22:02:58;99709.16;;;13.80;90.79
15529;BME280;7866;52.280;9.500;2023-04-28T22:08:01;99711.44;;;13.77;91.70
15529;BME280;7866;52.280;9.500;2023-04-28T22:13:03;99711.63;;;13.75;92.29
15529;BME280;7866;52.280;9.500;2023-04-28T22:18:05;99719.50;;;13.77;90.74
15529;BME280;7866;52.280;9.500;2023-04-28T22:23:09;99721.75;;;13.80;90.81
15529;BME280;7866;52.280;9.500;2023-04-28T22:28:10;99724.06;;;13.83;89.85
15529;BME280;7866;52.280;9.500;2023-04-28T22:33:13;99724.88;;;13.77;89.27
15529;BME280;7866;52.280;9.500;2023-04-28T22:38:16;99728.59;;;13.83;89.03
15529;BME280;7866;52.280;9.500;2023-04-28T22:43:17;99726.13;;;13.81;88.96
15529;BME280;7866;52.280;9.500;2023-04-28T22:48:19;99733.16;;;13.82;87.45
15529;BME280;7866;52.280;9.500;2023-04-28T22:53:22;99726.13;;;13.81;87.37
15529;BME280;7866;52.280;9.500;2023-04-28T22:58:23;99730.88;;;13.79;87.92
15529;BME280;7866;52.280;9.500;2023-04-28T23:03:25;99730.06;;;13.78;86.99
15529;BME280;7866;52.280;9.500;2023-04-28T23:08:28;99740.22;;;13.76;87.47
15529;BME280;7866;52.280;9.500;2023-04-28T23:13:30;99744.13;;;13.61;88.75
15529;BME280;7866;52.280;9.500;2023-04-28T23:18:32;99744.28;;;13.46;89.72
15529;BME280;7866;52.280;9.500;2023-04-28T23:23:35;99755.19;;;13.31;90.44
15529;BME280;7866;52.280;9.500;2023-04-28T23:28:36;99748.69;;;13.19;91.23
15529;BME280;7866;52.280;9.500;2023-04-28T23:33:38;99756.31;;;13.15;91.83
15529;BME280;7866;52.280;9.500;2023-04-28T23:38:41;99755.28;;;13.10;92.51
15529;BME280;7866;52.280;9.500;2023-04-28T23:43:42;99765.00;;;13.11;91.25
15529;BME280;7866;52.280;9.500;2023-04-28T23:48:44;99762.69;;;13.01;93.19
15529;BME280;7866;52.280;9.500;2023-04-28T23:53:47;99765.53;;;12.93;92.85
15529;BME280;7866;52.280;9.500;2023-04-28T23:58:49;99769.81;;;12.87;93.87
